createdAt,value
2017-12-12T00:02:08.173Z,93.65
2017-12-12T00:04:34.405Z,93.42
2017-12-12T00:07:00.594Z,93.17
2017-12-12T00:09:27.006Z,93.19
2017-12-12T00:11:53.219Z,93.07
2017-12-12T00:14:19.620Z,93.17
2017-12-12T00:16:45.838Z,93.01
2017-12-12T00:19:12.448Z,93.01
2017-12-12T00:21:38.723Z,92.99
2017-12-12T00:24:04.926Z,92.96
2017-12-12T00:26:31.348Z,93.02
2017-12-12T00:28:57.596Z,93.11
2017-12-12T00:31:23.780Z,93.44
2017-12-12T00:33:50.267Z,93.18
2017-12-12T00:36:16.540Z,93.39
2017-12-12T00:38:42.919Z,93.55
2017-12-12T00:41:09.150Z,93.72
2017-12-12T00:43:35.373Z,93.67
2017-12-12T00:46:01.609Z,93.46
2017-12-12T00:48:27.829Z,93.34
2017-12-12T00:50:54.238Z,93.42
2017-12-12T00:53:20.425Z,93.19
2017-12-12T00:55:46.732Z,93.28
2017-12-12T00:58:12.967Z,93.31
2017-12-12T01:00:39.481Z,93.38
2017-12-12T01:03:05.725Z,93.49
2017-12-12T01:05:32.041Z,93.49
2017-12-12T01:07:58.234Z,93.53
2017-12-12T01:10:24.459Z,93.72
2017-12-12T01:12:50.743Z,94.09
2017-12-12T01:15:16.921Z,94.01
2017-12-12T01:17:43.133Z,94.09
2017-12-12T01:20:09.313Z,94.24
2017-12-12T01:22:35.503Z,94.36
2017-12-12T01:25:01.731Z,94.46
2017-12-12T01:27:28.116Z,94.36
2017-12-12T01:29:54.297Z,94.45
2017-12-12T01:32:20.569Z,94.41
2017-12-12T01:34:46.802Z,94.40
2017-12-12T01:37:13.010Z,93.98
2017-12-12T01:39:39.233Z,93.95
2017-12-12T01:42:05.483Z,93.92
2017-12-12T01:44:31.741Z,93.67
2017-12-12T01:46:57.959Z,93.49
2017-12-12T01:49:24.374Z,93.74
2017-12-12T01:51:50.601Z,93.64
2017-12-12T01:54:16.822Z,93.30
2017-12-12T01:56:43.008Z,93.31
2017-12-12T01:59:09.288Z,93.22
2017-12-12T02:01:35.695Z,93.24
2017-12-12T02:04:01.951Z,93.13
2017-12-12T02:06:28.134Z,93.17
2017-12-12T02:08:54.378Z,93.45
2017-12-12T02:11:20.626Z,93.61
2017-12-12T02:13:46.813Z,93.62
2017-12-12T02:16:13.037Z,93.76
2017-12-12T02:18:39.338Z,93.90
2017-12-12T02:21:05.807Z,93.88
2017-12-12T02:23:32.027Z,93.87
2017-12-12T02:25:58.406Z,93.85
2017-12-12T02:28:24.593Z,93.77
2017-12-12T02:30:50.802Z,93.65
2017-12-12T02:33:17.057Z,94.13
2017-12-12T02:35:43.235Z,93.92
2017-12-12T02:38:09.765Z,93.78
2017-12-12T02:40:35.974Z,93.79
2017-12-12T02:43:02.255Z,93.73
2017-12-12T02:45:28.662Z,93.54
2017-12-12T02:47:54.854Z,93.62
2017-12-12T02:50:21.103Z,93.47
2017-12-12T02:52:47.541Z,93.18
2017-12-12T02:55:13.774Z,93.08
2017-12-12T02:57:40.055Z,93.28
2017-12-12T03:00:06.358Z,93.21
2017-12-12T03:02:32.533Z,93.05
2017-12-12T03:04:58.722Z,92.91
2017-12-12T03:07:24.940Z,93.00
2017-12-12T03:09:51.109Z,92.97
2017-12-12T03:12:17.376Z,92.88
2017-12-12T03:14:43.602Z,92.70
2017-12-12T03:17:09.830Z,92.83
2017-12-12T03:19:36.032Z,92.72
2017-12-12T03:22:02.252Z,92.79
2017-12-12T03:24:28.585Z,92.89
2017-12-12T03:26:54.780Z,92.91
2017-12-12T03:29:21.144Z,92.81
2017-12-12T03:31:47.396Z,92.84
2017-12-12T03:34:13.637Z,93.05
2017-12-12T03:36:40.244Z,93.10
2017-12-12T03:39:06.659Z,93.01
2017-12-12T03:41:32.920Z,92.88
2017-12-12T03:43:59.146Z,92.78
2017-12-12T03:46:25.382Z,92.76
2017-12-12T03:48:51.599Z,92.78
2017-12-12T03:51:17.825Z,92.94
2017-12-12T03:53:44.009Z,93.06
2017-12-12T03:56:10.330Z,93.08
2017-12-12T03:58:36.729Z,92.98
2017-12-12T04:01:02.918Z,92.95
2017-12-12T04:03:29.122Z,92.83
2017-12-12T04:05:55.355Z,92.78
2017-12-12T04:08:21.554Z,92.74
2017-12-12T04:10:47.872Z,92.70
2017-12-12T04:13:14.115Z,92.59
2017-12-12T04:15:40.310Z,92.65
2017-12-12T04:18:06.702Z,92.55
2017-12-12T04:20:32.986Z,92.83
2017-12-12T04:22:59.158Z,93.28
2017-12-12T04:25:25.666Z,93.38
2017-12-12T04:27:52.090Z,93.36
2017-12-12T04:30:18.273Z,93.32
2017-12-12T04:32:44.448Z,93.01
2017-12-12T04:35:10.679Z,92.92
2017-12-12T04:37:37.219Z,92.83
2017-12-12T04:40:03.401Z,92.69
2017-12-12T04:42:29.621Z,93.03
2017-12-12T04:44:55.904Z,92.98
2017-12-12T04:47:22.133Z,93.00
2017-12-12T04:49:48.362Z,92.84
2017-12-12T04:52:14.591Z,92.45
2017-12-12T04:54:40.817Z,92.41
2017-12-12T04:57:07.294Z,92.43
2017-12-12T04:59:33.671Z,92.50
2017-12-12T05:01:59.855Z,92.55
2017-12-12T05:04:26.102Z,92.42
2017-12-12T05:06:52.279Z,92.48
2017-12-12T05:09:18.460Z,92.81
2017-12-12T05:11:44.697Z,92.81
2017-12-12T05:14:11.049Z,92.66
2017-12-12T05:16:37.237Z,92.61
2017-12-12T05:19:03.451Z,92.53
2017-12-12T05:21:29.735Z,92.70
2017-12-12T05:23:55.967Z,93.07
2017-12-12T05:26:22.188Z,93.43
2017-12-12T05:28:48.377Z,93.18
2017-12-12T05:31:14.561Z,92.91
2017-12-12T05:33:40.842Z,92.79
2017-12-12T05:36:07.109Z,92.72
2017-12-12T05:38:33.283Z,92.79
2017-12-12T05:40:59.615Z,92.38
2017-12-12T05:43:25.804Z,92.33
2017-12-12T05:45:52.001Z,91.79
2017-12-12T05:48:18.214Z,91.40
2017-12-12T05:50:44.455Z,91.57
2017-12-12T05:53:10.716Z,91.62
2017-12-12T05:55:37.140Z,90.98
2017-12-12T05:58:03.320Z,90.80
2017-12-12T06:00:29.602Z,90.50
2017-12-12T06:02:56.023Z,90.76
2017-12-12T06:05:22.268Z,90.37
2017-12-12T06:07:48.690Z,90.26
2017-12-12T06:10:14.887Z,90.53
2017-12-12T06:12:41.137Z,90.20
2017-12-12T06:15:07.387Z,89.43
2017-12-12T06:17:33.805Z,89.49
2017-12-12T06:19:59.988Z,89.11
2017-12-12T06:22:26.278Z,89.33
2017-12-12T06:24:52.499Z,88.76
2017-12-12T06:27:18.768Z,88.63
2017-12-12T06:29:44.930Z,88.21
2017-12-12T06:32:11.188Z,88.01
2017-12-12T06:34:37.386Z,88.19
2017-12-12T06:37:03.561Z,87.73
2017-12-12T06:39:29.880Z,85.40
2017-12-12T06:41:56.109Z,83.89
2017-12-12T06:44:22.293Z,76.61
2017-12-12T06:46:48.502Z,70.68
2017-12-12T06:49:14.852Z,62.93
2017-12-12T06:51:41.022Z,59.11
2017-12-12T06:54:07.662Z,56.97
2017-12-12T06:56:33.840Z,57.30
2017-12-12T06:59:00.018Z,56.21
2017-12-12T07:01:26.344Z,53.36
2017-12-12T07:03:52.519Z,54.16
2017-12-12T07:06:18.803Z,54.47
2017-12-12T07:08:45.292Z,50.86
2017-12-12T07:11:11.671Z,52.22
2017-12-12T07:13:37.826Z,49.93
2017-12-12T07:16:04.127Z,50.09
2017-12-12T07:18:30.296Z,49.99
2017-12-12T07:20:56.485Z,48.30
2017-12-12T07:23:22.737Z,48.02
2017-12-12T07:25:48.926Z,47.49
2017-12-12T07:28:15.104Z,48.08
2017-12-12T07:30:41.318Z,47.82
2017-12-12T07:33:07.522Z,47.22
2017-12-12T07:35:33.697Z,47.01
2017-12-12T07:37:59.919Z,45.38
2017-12-12T07:40:26.207Z,43.96
2017-12-12T07:42:52.405Z,43.64
2017-12-12T07:45:18.640Z,43.02
2017-12-12T07:47:45.035Z,41.87
2017-12-12T07:50:11.204Z,41.15
2017-12-12T07:52:37.550Z,42.14
2017-12-12T07:55:03.755Z,42.23
2017-12-12T07:57:30.002Z,42.84
2017-12-12T07:59:56.647Z,41.88
2017-12-12T08:02:22.869Z,41.74
2017-12-12T08:04:49.053Z,41.81
2017-12-12T08:07:15.331Z,41.52
2017-12-12T08:09:41.517Z,41.56
2017-12-12T08:12:07.775Z,40.64
2017-12-12T08:14:34.003Z,39.55
2017-12-12T08:17:00.249Z,38.90
2017-12-12T08:19:26.469Z,38.56
2017-12-12T08:21:52.695Z,38.40
2017-12-12T08:24:18.890Z,39.12
2017-12-12T08:26:45.154Z,41.10
2017-12-12T08:29:11.589Z,38.89
2017-12-12T08:31:37.764Z,37.93
2017-12-12T08:34:04.042Z,36.85
2017-12-12T08:36:30.265Z,35.64
2017-12-12T08:38:56.489Z,35.77
2017-12-12T08:41:22.752Z,35.25
2017-12-12T08:43:48.990Z,37.23
2017-12-12T08:46:15.405Z,36.61
2017-12-12T08:48:41.578Z,36.63
2017-12-12T08:51:07.804Z,35.92
2017-12-12T08:53:34.081Z,34.50
2017-12-12T08:56:00.272Z,33.68
2017-12-12T08:58:26.487Z,33.23
2017-12-12T09:00:52.753Z,34.22
2017-12-12T09:03:19.005Z,33.49
2017-12-12T09:05:45.627Z,33.69
2017-12-12T09:08:11.819Z,33.31
2017-12-12T09:10:38.084Z,33.26
2017-12-12T09:13:04.519Z,32.78
2017-12-12T09:15:30.693Z,31.87
2017-12-12T09:17:56.865Z,31.05
2017-12-12T09:20:23.212Z,31.28
2017-12-12T09:22:49.397Z,29.00
2017-12-12T09:25:15.569Z,28.96
2017-12-12T09:27:41.811Z,30.23
2017-12-12T09:30:07.983Z,30.12
2017-12-12T09:32:34.371Z,29.42
2017-12-12T09:35:00.605Z,29.00
2017-12-12T09:37:26.799Z,27.61
2017-12-12T09:39:53.033Z,27.09
2017-12-12T09:42:19.481Z,27.08
2017-12-12T09:44:45.699Z,27.43
2017-12-12T09:47:11.926Z,27.58
2017-12-12T09:49:38.140Z,27.78
2017-12-12T09:52:04.550Z,29.03
2017-12-12T09:54:30.847Z,27.84
2017-12-12T09:56:57.209Z,26.43
2017-12-12T09:59:23.651Z,26.70
2017-12-12T10:01:49.840Z,25.15
2017-12-12T10:04:16.138Z,24.77
2017-12-12T10:06:42.321Z,24.45
2017-12-12T10:09:08.507Z,24.31
2017-12-12T10:11:34.728Z,24.24
2017-12-12T10:14:01.058Z,25.35
2017-12-12T10:16:27.280Z,24.07
2017-12-12T10:18:53.705Z,24.14
2017-12-12T10:21:19.980Z,23.46
2017-12-12T10:23:46.384Z,23.91
2017-12-12T10:26:12.814Z,25.34
2017-12-12T10:28:39.037Z,23.13
2017-12-12T10:31:05.221Z,23.05
2017-12-12T10:33:31.502Z,21.03
2017-12-12T10:35:57.731Z,19.86
2017-12-12T10:38:23.917Z,21.93
2017-12-12T10:40:50.199Z,24.00
2017-12-12T10:43:16.421Z,23.20
2017-12-12T10:45:42.607Z,22.31
2017-12-12T10:48:08.817Z,21.39
2017-12-12T10:50:34.989Z,20.22
2017-12-12T10:53:01.337Z,19.07
2017-12-12T10:55:27.775Z,21.37
2017-12-12T10:57:53.990Z,21.24
2017-12-12T11:00:20.230Z,20.71
2017-12-12T11:02:46.652Z,20.61
2017-12-12T11:05:12.881Z,22.47
2017-12-12T11:07:39.081Z,21.50
2017-12-12T11:10:05.325Z,22.24
2017-12-12T11:12:31.503Z,20.86
2017-12-12T11:14:57.801Z,20.90
2017-12-12T11:17:24.233Z,22.74
2017-12-12T11:19:50.468Z,20.86
2017-12-12T11:22:16.645Z,19.56
2017-12-12T11:24:42.855Z,20.42
2017-12-12T11:27:09.153Z,18.75
2017-12-12T11:29:35.362Z,19.11
2017-12-12T11:32:01.589Z,19.25
2017-12-12T11:34:27.832Z,18.19
2017-12-12T11:36:54.022Z,19.15
2017-12-12T11:39:20.260Z,18.58
2017-12-12T11:41:46.446Z,20.15
2017-12-12T11:44:12.635Z,19.49
2017-12-12T11:46:38.865Z,18.23
2017-12-12T11:49:05.203Z,18.03
2017-12-12T11:51:31.397Z,19.80
2017-12-12T11:53:57.627Z,16.63
2017-12-12T11:56:23.883Z,16.38
2017-12-12T11:58:50.070Z,16.54
2017-12-12T12:01:16.363Z,17.17
2017-12-12T12:03:42.550Z,18.88
2017-12-12T12:06:08.728Z,19.15
2017-12-12T12:08:35.232Z,16.43
2017-12-12T12:11:01.435Z,19.92
2017-12-12T12:13:27.897Z,18.26
2017-12-12T12:15:54.117Z,18.93
2017-12-12T12:18:20.366Z,19.08
2017-12-12T12:20:46.555Z,18.74
2017-12-12T12:23:12.974Z,20.31
2017-12-12T12:25:39.276Z,17.96
2017-12-12T12:28:05.455Z,18.61
2017-12-12T12:30:31.699Z,19.75
2017-12-12T12:32:57.919Z,19.39
2017-12-12T12:35:24.103Z,21.60
2017-12-12T12:37:50.329Z,21.69
2017-12-12T12:40:16.613Z,22.13
2017-12-12T12:42:42.797Z,19.66
2017-12-12T12:45:09.075Z,22.03
2017-12-12T12:47:35.304Z,21.04
2017-12-12T12:50:01.562Z,19.86
2017-12-12T12:52:27.974Z,21.31
2017-12-12T12:54:54.161Z,20.93
2017-12-12T12:57:20.427Z,19.56
2017-12-12T12:59:46.854Z,17.75
2017-12-12T13:02:13.094Z,17.75
2017-12-12T13:04:39.284Z,17.81
2017-12-12T13:07:05.548Z,19.01
2017-12-12T13:09:31.752Z,18.78
2017-12-12T13:11:57.949Z,19.19
2017-12-12T13:14:24.324Z,19.63
2017-12-12T13:16:50.513Z,21.05
2017-12-12T13:19:16.903Z,21.23
2017-12-12T13:21:43.152Z,21.17
2017-12-12T13:24:09.473Z,20.19
2017-12-12T13:26:35.955Z,20.48
2017-12-12T13:29:02.224Z,20.95
2017-12-12T13:31:28.425Z,21.05
2017-12-12T13:33:54.676Z,21.58
2017-12-12T13:36:21.095Z,22.30
2017-12-12T13:38:47.284Z,23.11
2017-12-12T13:41:13.490Z,23.59
2017-12-12T13:43:39.723Z,22.23
2017-12-12T13:46:05.909Z,22.21
2017-12-12T13:48:32.302Z,23.17
2017-12-12T13:50:58.697Z,24.93
2017-12-12T13:53:24.912Z,25.35
2017-12-12T13:55:51.187Z,24.75
2017-12-12T13:58:17.425Z,26.00
2017-12-12T14:00:43.608Z,26.94
2017-12-12T14:03:09.789Z,30.30
2017-12-12T14:05:36.049Z,32.26
2017-12-12T14:08:02.291Z,33.79
2017-12-12T14:10:28.508Z,37.08
2017-12-12T14:12:54.746Z,39.27
2017-12-12T14:15:20.949Z,40.80
2017-12-12T14:17:47.196Z,41.57
2017-12-12T14:20:13.602Z,44.60
2017-12-12T14:22:39.858Z,46.82
2017-12-12T14:25:06.073Z,46.93
2017-12-12T14:27:32.313Z,47.42
2017-12-12T14:29:58.511Z,47.72
2017-12-12T14:32:24.750Z,48.91
2017-12-12T14:34:50.990Z,46.03
2017-12-12T14:37:17.239Z,50.64
2017-12-12T14:39:43.457Z,52.28
2017-12-12T14:42:09.698Z,52.52
2017-12-12T14:44:35.876Z,52.92
2017-12-12T14:47:02.059Z,51.82
2017-12-12T14:49:28.383Z,52.58
2017-12-12T14:51:54.555Z,49.41
2017-12-12T14:54:20.741Z,52.53
2017-12-12T14:56:47.068Z,54.67
2017-12-12T14:59:13.266Z,55.37
2017-12-12T15:01:39.509Z,56.17
2017-12-12T15:04:05.715Z,55.56
2017-12-12T15:06:31.896Z,55.82
2017-12-12T15:08:58.093Z,54.79
2017-12-12T15:11:24.429Z,57.01
2017-12-12T15:13:50.624Z,58.05
2017-12-12T15:16:16.888Z,57.90
2017-12-12T15:18:43.105Z,59.47
2017-12-12T15:21:09.286Z,58.57
2017-12-12T15:23:35.791Z,58.23
2017-12-12T15:26:02.220Z,60.65
2017-12-12T15:28:28.450Z,60.86
2017-12-12T15:30:54.845Z,61.27
2017-12-12T15:33:21.051Z,55.43
2017-12-12T15:35:47.297Z,61.51
2017-12-12T15:38:13.570Z,63.56
2017-12-12T15:40:40.172Z,62.62
2017-12-12T15:43:06.590Z,64.60
2017-12-12T15:45:32.784Z,57.74
2017-12-12T15:47:59.306Z,55.66
2017-12-12T15:50:25.521Z,57.25
2017-12-12T15:52:51.765Z,55.22
2017-12-12T15:55:17.988Z,57.37
2017-12-12T15:57:44.257Z,52.78
2017-12-12T16:00:10.455Z,53.29
2017-12-12T16:02:36.819Z,54.64
2017-12-12T16:05:03.110Z,51.27
2017-12-12T16:07:29.296Z,49.52
2017-12-12T16:09:55.628Z,49.39
2017-12-12T16:12:22.048Z,49.97
2017-12-12T16:14:48.458Z,50.76
2017-12-12T16:17:14.856Z,51.22
2017-12-12T16:19:41.044Z,54.77
2017-12-12T16:22:07.255Z,56.08
2017-12-12T16:24:33.552Z,58.17
2017-12-12T16:27:00.014Z,60.35
2017-12-12T16:29:26.192Z,61.15
2017-12-12T16:31:52.421Z,62.68
2017-12-12T16:34:18.818Z,65.26
2017-12-12T16:36:45.083Z,64.92
2017-12-12T16:39:11.332Z,65.60
2017-12-12T16:41:37.556Z,66.90
2017-12-12T16:44:03.751Z,67.63
2017-12-12T16:46:30.982Z,68.59
2017-12-12T16:48:57.159Z,70.01
2017-12-12T16:51:23.329Z,70.89
2017-12-12T16:53:49.553Z,70.55
2017-12-12T16:56:15.942Z,71.80
2017-12-12T16:58:42.152Z,71.50
2017-12-12T17:01:08.372Z,71.53
2017-12-12T17:03:34.542Z,72.86
2017-12-12T17:06:00.740Z,74.33
2017-12-12T17:08:26.951Z,74.71
2017-12-12T17:10:53.160Z,74.86
2017-12-12T17:13:19.330Z,74.98
2017-12-12T17:15:45.536Z,75.80
2017-12-12T17:18:11.797Z,77.66
2017-12-12T17:20:38.005Z,79.12
2017-12-12T17:23:04.236Z,77.59
2017-12-12T17:25:30.462Z,78.18
2017-12-12T17:27:56.713Z,77.19
2017-12-12T17:30:23.172Z,76.50
2017-12-12T17:32:49.572Z,75.94
2017-12-12T17:35:15.828Z,75.99
2017-12-12T17:37:42.249Z,77.45
2017-12-12T17:40:08.450Z,78.19
2017-12-12T17:42:34.642Z,78.53
2017-12-12T17:45:00.871Z,78.61
2017-12-12T17:47:27.152Z,79.79
2017-12-12T17:49:53.361Z,79.74
2017-12-12T17:52:19.605Z,80.29
2017-12-12T17:54:45.840Z,80.59
2017-12-12T17:57:12.052Z,81.09
2017-12-12T17:59:38.522Z,80.96
2017-12-12T18:02:04.740Z,81.80
2017-12-12T18:04:30.949Z,80.58
2017-12-12T18:06:57.176Z,80.61
2017-12-12T18:09:24.018Z,81.21
2017-12-12T18:11:50.436Z,81.60
2017-12-12T18:14:16.691Z,82.25
2017-12-12T18:16:42.910Z,83.16
2017-12-12T18:19:09.149Z,82.75
2017-12-12T18:21:35.382Z,82.54
2017-12-12T18:24:01.567Z,83.27
2017-12-12T18:26:27.837Z,82.94
2017-12-12T18:28:54.212Z,82.01
2017-12-12T18:31:20.513Z,82.17
2017-12-12T18:33:46.717Z,81.80
2017-12-12T18:36:13.124Z,81.89
2017-12-12T18:38:39.322Z,82.21
2017-12-12T18:41:05.629Z,81.56
2017-12-12T18:43:32.236Z,81.28
2017-12-12T18:45:58.482Z,81.22
2017-12-12T18:48:24.654Z,80.28
2017-12-12T18:50:50.952Z,80.04
2017-12-12T18:53:17.170Z,81.65
2017-12-12T18:55:43.344Z,83.00
2017-12-12T18:58:09.556Z,84.18
2017-12-12T19:00:35.777Z,84.10
2017-12-12T19:03:01.950Z,84.21
2017-12-12T19:05:28.167Z,84.06
2017-12-12T19:07:54.531Z,83.42
2017-12-12T19:10:20.718Z,83.76
2017-12-12T19:12:46.927Z,84.15
2017-12-12T19:15:13.099Z,85.01
2017-12-12T19:17:39.446Z,85.94
2017-12-12T19:20:05.672Z,86.26
2017-12-12T19:22:31.916Z,86.66
2017-12-12T19:24:58.102Z,86.74
2017-12-12T19:27:24.331Z,86.29
2017-12-12T19:29:50.512Z,86.67
2017-12-12T19:32:16.836Z,86.79
2017-12-12T19:34:43.211Z,86.47
2017-12-12T19:37:09.392Z,86.57
2017-12-12T19:39:35.720Z,86.12
2017-12-12T19:42:01.945Z,85.71
2017-12-12T19:44:28.135Z,85.55
2017-12-12T19:46:54.452Z,86.56
2017-12-12T19:49:20.667Z,86.03
2017-12-12T19:51:46.847Z,86.21
2017-12-12T19:54:13.090Z,86.19
2017-12-12T19:56:39.530Z,86.39
2017-12-12T19:59:05.712Z,87.05
2017-12-12T20:01:31.979Z,87.04
2017-12-12T20:03:58.418Z,87.05
2017-12-12T20:06:24.645Z,87.20
2017-12-12T20:08:51.094Z,88.09
2017-12-12T20:11:17.320Z,87.95
2017-12-12T20:13:43.530Z,87.76
2017-12-12T20:16:09.781Z,87.12
2017-12-12T20:18:36.011Z,86.82
2017-12-12T20:21:02.234Z,87.26
2017-12-12T20:23:28.421Z,87.01
2017-12-12T20:25:54.639Z,86.50
2017-12-12T20:28:20.911Z,86.19
2017-12-12T20:30:47.138Z,87.78
2017-12-12T20:33:13.359Z,88.57
2017-12-12T20:35:39.539Z,89.28
2017-12-12T20:38:05.814Z,89.41
2017-12-12T20:40:32.038Z,89.18
2017-12-12T20:42:58.213Z,88.87
2017-12-12T20:45:24.462Z,88.81
2017-12-12T20:47:50.725Z,88.93
2017-12-12T20:50:16.897Z,88.15
2017-12-12T20:52:43.347Z,87.49
2017-12-12T20:55:09.554Z,87.01
2017-12-12T20:57:35.710Z,87.30
2017-12-12T21:00:01.923Z,87.89
2017-12-12T21:02:28.127Z,88.09
2017-12-12T21:04:54.317Z,88.10
2017-12-12T21:07:20.574Z,88.99
2017-12-12T21:09:46.797Z,88.19
2017-12-12T21:12:13.038Z,88.32
2017-12-12T21:14:39.259Z,88.18
2017-12-12T21:17:05.680Z,87.81
2017-12-12T21:19:31.930Z,88.55
2017-12-12T21:21:58.136Z,89.16
2017-12-12T21:24:24.357Z,88.33
2017-12-12T21:26:50.614Z,87.78
2017-12-12T21:29:16.815Z,88.57
2017-12-12T21:31:43.485Z,88.66
2017-12-12T21:34:09.686Z,86.76
2017-12-12T21:36:35.935Z,86.74
2017-12-12T21:39:02.182Z,86.18
2017-12-12T21:41:28.580Z,86.38
2017-12-12T21:43:54.758Z,86.65
2017-12-12T21:46:21.056Z,87.13
2017-12-12T21:48:47.216Z,88.06
2017-12-12T21:51:13.503Z,88.24
2017-12-12T21:53:39.769Z,89.18
2017-12-12T21:56:05.935Z,89.61
2017-12-12T21:58:32.182Z,90.14
2017-12-12T22:00:58.623Z,90.26
2017-12-12T22:03:24.861Z,90.06
2017-12-12T22:05:51.065Z,90.05
2017-12-12T22:08:17.262Z,89.43
2017-12-12T22:10:43.426Z,88.96
2017-12-12T22:13:09.615Z,88.62
2017-12-12T22:15:35.853Z,88.74
2017-12-12T22:18:02.162Z,88.59
2017-12-12T22:20:28.432Z,88.75
2017-12-12T22:22:54.663Z,88.78
2017-12-12T22:25:20.834Z,88.73
2017-12-12T22:27:46.992Z,88.81
2017-12-12T22:30:13.357Z,88.97
2017-12-12T22:32:39.603Z,88.84
2017-12-12T22:35:05.761Z,88.67
2017-12-12T22:37:31.956Z,88.30
2017-12-12T22:39:58.116Z,88.41
2017-12-12T22:42:24.270Z,88.51
2017-12-12T22:44:50.474Z,88.79
2017-12-12T22:47:16.626Z,88.69
2017-12-12T22:49:42.793Z,88.82
2017-12-12T22:52:08.994Z,88.92
2017-12-12T22:54:35.154Z,89.20
2017-12-12T22:57:01.305Z,89.51
2017-12-12T22:59:27.495Z,89.68
2017-12-12T23:01:53.667Z,89.79
2017-12-12T23:04:19.844Z,89.59
2017-12-12T23:06:46.057Z,89.43
2017-12-12T23:09:12.226Z,89.56
2017-12-12T23:11:38.404Z,89.50
2017-12-12T23:14:04.629Z,89.22
2017-12-12T23:16:30.806Z,89.04
2017-12-12T23:18:56.974Z,88.89
2017-12-12T23:21:23.213Z,89.09
2017-12-12T23:23:49.379Z,89.08
2017-12-12T23:26:15.588Z,89.10
2017-12-12T23:28:41.808Z,89.27
2017-12-12T23:31:08.026Z,89.74
2017-12-12T23:33:34.198Z,90.00
2017-12-12T23:36:00.411Z,89.85
2017-12-12T23:38:26.580Z,89.71
2017-12-12T23:40:52.906Z,89.50
2017-12-12T23:43:19.100Z,90.07
2017-12-12T23:45:45.273Z,90.00
2017-12-12T23:48:11.437Z,89.95
2017-12-12T23:50:37.883Z,89.83
2017-12-12T23:53:04.052Z,89.57
2017-12-12T23:55:30.204Z,89.15
2017-12-12T23:57:56.425Z,89.16
